Time;durP1;ratioP1;P1;durP2;ratioP2;P2;SDS_P1;SDS_P2;PMS_P1;PMS_P2;Temp;Humidity;BMP_temperature;BMP_pressure;BME280_temperature;BME280_humidity;BME280_pressure;Samples;Min_cycle;Max_cycle;Signal;HPM_P1;HPM_P2
2022/01/08 00:01:32;;;;;;;7.57;3.50;;;2.20;80.80;;;0.22;92.48;95766.00;4951921;29;20378;-65
2022/01/08 00:03:58;;;;;;;4.80;3.15;;;2.20;80.50;;;0.22;91.92;95763.41;4941700;28;20511;-65
2022/01/08 00:06:24;;;;;;;5.22;3.20;;;2.20;80.70;;;0.24;91.94;95764.13;4931915;29;20063;-65
2022/01/08 00:08:50;;;;;;;4.85;3.10;;;2.20;80.00;;;0.24;91.70;95758.94;4917181;29;20055;-65
2022/01/08 00:11:20;;;;;;;4.55;2.85;;;2.20;80.30;;;0.25;91.60;95758.00;4935008;29;20066;-66
2022/01/08 00:13:45;;;;;;;4.80;3.20;;;2.30;79.90;;;0.26;91.24;95746.69;4923289;29;20065;-66
2022/01/08 00:16:11;;;;;;;5.40;3.45;;;2.30;79.60;;;0.26;91.57;95757.03;4919052;28;20051;-66
2022/01/08 00:18:37;;;;;;;5.85;4.07;;;2.30;79.70;;;0.25;90.88;95750.22;4935531;29;20028;-66
2022/01/08 00:21:03;;;;;;;10.00;5.63;;;2.30;79.80;;;0.25;91.01;95756.22;4918074;29;20106;-65
2022/01/08 00:23:29;;;;;;;6.20;4.43;;;2.30;79.70;;;0.26;91.09;95751.88;4967471;28;20043;-65
2022/01/08 00:25:55;;;;;;;5.13;3.30;;;2.30;79.60;;;0.26;90.43;95751.88;4897711;29;20036;-64
2022/01/08 00:28:21;;;;;;;6.15;3.53;;;2.20;79.20;;;0.26;91.26;95751.88;4931913;29;20520;-65
2022/01/08 00:30:48;;;;;;;6.47;3.17;;;2.30;79.40;;;0.25;90.45;95743.28;4926596;29;20044;-64
2022/01/08 00:33:13;;;;;;;4.55;2.90;;;2.30;79.30;;;0.26;90.42;95738.94;4925502;29;20035;-65
2022/01/08 00:35:39;;;;;;;5.45;3.35;;;2.30;79.30;;;0.25;90.56;95732.13;4935282;29;20582;-65
2022/01/08 00:38:05;;;;;;;4.13;3.10;;;2.20;79.30;;;0.24;90.53;95733.09;4918544;28;20035;-65
2022/01/08 00:40:31;;;;;;;4.80;3.55;;;2.20;79.30;;;0.24;90.29;95733.09;4931646;29;20039;-65
2022/01/08 00:42:56;;;;;;;3.30;2.75;;;2.30;79.30;;;0.23;90.23;95731.44;4932416;29;20062;-66
2022/01/08 00:45:22;;;;;;;6.68;3.60;;;2.30;79.10;;;0.23;90.35;95726.28;4934885;29;20063;-65
2022/01/08 00:47:48;;;;;;;5.57;3.40;;;2.30;79.00;;;0.21;89.96;95721.22;4950933;29;20031;-65
2022/01/08 00:50:14;;;;;;;5.13;3.30;;;2.30;79.10;;;0.24;90.05;95725.31;4964727;23;20063;-68
2022/01/08 00:52:41;;;;;;;5.03;2.90;;;2.40;79.00;;;0.23;90.41;95710.75;4927507;29;21089;-69
2022/01/08 00:55:08;;;;;;;4.75;3.35;;;2.30;78.50;;;0.20;89.57;95711.00;4944237;29;20126;-68
2022/01/08 00:57:33;;;;;;;5.45;3.38;;;2.20;78.50;;;0.17;89.33;95706.09;4934894;29;20043;-69
2022/01/08 00:59:59;;;;;;;4.13;3.28;;;2.10;78.80;;;0.12;89.03;95697.94;4934154;28;20501;-69
2022/01/08 01:02:25;;;;;;;4.50;2.80;;;2.00;78.60;;;0.09;89.52;95693.03;4950971;28;20419;-69
2022/01/08 01:04:50;;;;;;;4.10;2.83;;;2.00;78.60;;;0.03;89.02;95688.41;4918244;29;20385;-69
2022/01/08 01:07:17;;;;;;;3.85;2.70;;;1.90;78.50;;;-0.04;89.01;95694.09;4950712;29;20039;-68
2022/01/08 01:09:43;;;;;;;5.57;3.22;;;1.90;78.40;;;-0.07;88.50;95694.38;4934343;29;20576;-68
2022/01/08 01:12:08;;;;;;;3.95;2.70;;;1.90;78.50;;;-0.09;89.31;95688.50;4931084;29;20044;-68
2022/01/08 01:14:34;;;;;;;4.18;2.95;;;1.90;78.40;;;-0.13;89.08;95684.56;4946328;29;20218;-68
2022/01/08 01:17:00;;;;;;;3.20;2.45;;;1.90;78.30;;;-0.13;88.96;95684.56;4931721;29;20035;-68
2022/01/08 01:19:26;;;;;;;3.75;2.70;;;1.90;78.20;;;-0.15;88.62;95690.81;4943427;29;20085;-68
2022/01/08 01:21:54;;;;;;;3.10;2.50;;;1.90;78.30;;;-0.16;88.51;95695.19;4902738;29;20573;-69
2022/01/08 01:24:23;;;;;;;4.13;2.65;;;1.90;78.40;;;-0.18;88.99;95680.75;4933835;28;20049;-68
2022/01/08 01:29:40;;;;;;;4.25;2.70;;;1.80;78.40;;;-0.22;88.84;95667.28;4936300;29;20031;-69
2022/01/08 01:48:20;;;;;;;3.20;2.00;;;1.80;78.40;;;-0.21;87.98;95650.84;4959400;28;20501;-68
2022/01/08 01:50:47;;;;;;;4.25;2.35;;;1.70;78.40;;;-0.19;88.51;95642.94;4969450;28;20043;-68
2022/01/08 01:53:12;;;;;;;3.30;2.17;;;1.80;78.20;;;-0.18;88.04;95627.31;4931341;29;20047;-69
2022/01/08 01:55:40;;;;;;;3.60;2.40;;;1.90;78.30;;;-0.16;88.47;95627.16;4931290;29;20035;-68
2022/01/08 01:58:06;;;;;;;3.95;2.30;;;2.00;78.30;;;-0.16;88.04;95627.97;4930504;29;20047;-68
2022/01/08 02:00:32;;;;;;;3.80;2.70;;;1.90;78.00;;;-0.18;88.35;95619.53;4931193;29;20106;-67
2022/01/08 02:02:59;;;;;;;3.60;2.25;;;1.90;78.00;;;-0.19;88.37;95622.25;4935263;29;20498;-67
2022/01/08 02:05:25;;;;;;;4.65;2.78;;;1.90;78.00;;;-0.22;88.22;95612.19;4926802;29;20142;-68
2022/01/08 02:07:54;;;;;;;4.47;2.58;;;1.80;78.10;;;-0.27;87.76;95604.81;4926255;29;20036;-69
2022/01/08 02:10:20;;;;;;;4.22;2.83;;;1.80;78.00;;;-0.30;87.86;95599.94;4933958;28;20051;-68
2022/01/08 02:12:46;;;;;;;3.15;2.60;;;1.70;78.10;;;-0.34;88.33;95598.56;4934392;29;20051;-68
2022/01/08 02:15:12;;;;;;;4.10;2.70;;;1.60;78.40;;;-0.37;88.35;95593.69;4951112;28;20035;-69
2022/01/08 02:17:37;;;;;;;3.85;2.60;;;1.60;78.60;;;-0.41;88.57;95587.97;4902754;29;20471;-68
2022/01/08 02:20:04;;;;;;;4.20;2.55;;;1.60;78.40;;;-0.44;88.57;95584.84;4898264;28;20063;-69
2022/01/08 02:22:30;;;;;;;5.72;2.80;;;1.60;78.30;;;-0.49;87.90;95586.97;4949903;29;20042;-69
2022/01/08 02:24:56;;;;;;;5.30;2.80;;;1.50;78.30;;;-0.54;87.79;95573.66;4949930;29;20031;-69
2022/01/08 02:27:22;;;;;;;4.75;2.90;;;1.50;78.40;;;-0.58;88.16;95569.72;4949912;29;20404;-69
2022/01/08 02:29:49;;;;;;;3.95;2.58;;;1.40;78.50;;;-0.65;88.25;95575.41;4950268;29;20058;-68
2022/01/08 02:32:18;;;;;;;6.03;3.50;;;1.30;78.70;;;-0.68;88.39;95564.50;4949144;28;20403;-68
2022/01/08 02:34:45;;;;;;;4.90;2.72;;;1.40;78.50;;;-0.74;88.34;95563.28;4934145;29;20027;-68
2022/01/08 02:37:11;;;;;;;4.80;3.40;;;1.30;78.30;;;-0.79;88.32;95560.28;4933428;29;20135;-67
2022/01/08 02:39:41;;;;;;;4.63;3.17;;;1.30;78.10;;;-0.84;87.98;95549.56;4934210;29;20054;-68
2022/01/08 02:42:13;;;;;;;4.18;3.00;;;1.20;78.20;;;-0.90;88.14;95539.75;4936847;28;20680;-68
2022/01/08 02:44:41;;;;;;;4.28;3.00;;;1.10;78.40;;;-0.98;88.64;95543.00;4937648;29;20067;-68
2022/01/08 02:47:07;;;;;;;5.05;3.17;;;1.00;79.20;;;-1.00;88.88;95537.16;4953086;28;20134;-68
2022/01/08 02:49:34;;;;;;;5.07;2.88;;;1.10;79.50;;;-1.02;88.29;95530.47;4954722;28;20179;-67
2022/01/08 02:52:00;;;;;;;5.45;3.47;;;1.00;79.50;;;-1.05;88.84;95528.97;4936615;28;20039;-67
2022/01/08 02:54:25;;;;;;;4.68;3.05;;;1.00;79.80;;;-1.07;88.89;95525.72;4937219;29;20517;-67
2022/01/08 02:56:51;;;;;;;3.30;2.70;;;1.00;79.80;;;-1.10;88.85;95525.19;4921455;29;20063;-68
2022/01/08 02:59:17;;;;;;;6.47;3.20;;;0.90;79.90;;;-1.12;89.25;95522.72;4952791;28;20122;-68
2022/01/08 03:01:43;;;;;;;4.20;3.03;;;0.90;80.10;;;-1.12;89.08;95519.34;4920931;29;20035;-68
2022/01/08 03:04:09;;;;;;;3.88;2.80;;;0.90;80.10;;;-1.15;89.21;95514.41;4952025;28;20081;-69
2022/01/08 03:06:34;;;;;;;4.35;2.80;;;0.80;80.30;;;-1.16;89.25;95512.78;4917886;29;20408;-68
2022/01/08 03:09:00;;;;;;;3.95;2.65;;;0.90;80.50;;;-1.17;89.88;95504.22;4918013;29;20046;-67
2022/01/08 03:11:26;;;;;;;4.45;2.95;;;0.90;80.40;;;-1.17;89.51;95495.66;4925492;29;20115;-67
2022/01/08 03:13:51;;;;;;;4.13;2.90;;;0.90;80.10;;;-1.16;89.42;95497.28;4902020;29;20028;-68
2022/01/08 03:16:20;;;;;;;3.80;2.80;;;0.90;80.00;;;-1.19;89.31;95493.22;4942095;28;20150;-69
2022/01/08 03:18:47;;;;;;;5.47;2.95;;;0.90;80.00;;;-1.22;89.35;95483.16;4922115;29;20102;-69
2022/01/08 03:21:18;;;;;;;4.60;3.53;;;0.90;80.00;;;-1.24;89.54;95488.47;4929065;29;20035;-68
2022/01/08 03:23:54;;;;;;;4.63;3.30;;;0.80;80.10;;;-1.28;89.64;95481.94;4929103;29;20471;-68
2022/01/08 03:26:22;;;;;;;6.15;3.38;;;0.80;80.10;;;-1.30;89.60;95476.09;4932934;29;20048;-68
2022/01/08 03:28:48;;;;;;;4.75;3.15;;;0.80;80.20;;;-1.31;89.50;95468.47;4918166;29;20452;-68
2022/01/08 03:31:14;;;;;;;5.63;3.53;;;0.80;80.20;;;-1.34;89.74;95467.00;4931810;29;20047;-68
2022/01/08 03:33:41;;;;;;;6.10;2.90;;;0.70;80.30;;;-1.41;89.95;95468.44;4921157;29;20090;-68
2022/01/08 03:36:06;;;;;;;4.05;3.15;;;0.60;80.60;;;-1.44;89.58;95467.88;4935530;28;20504;-68
2022/01/08 03:38:32;;;;;;;5.63;3.08;;;0.50;80.70;;;-1.49;89.71;95470.06;4936797;29;20032;-67
2022/01/08 03:40:58;;;;;;;4.32;3.53;;;0.50;80.00;;;-1.55;89.12;95461.91;4952129;28;20578;-67
2022/01/08 03:43:24;;;;;;;4.28;3.00;;;0.40;79.70;;;-1.60;88.97;95458.06;4935661;29;20115;-68
2022/01/08 03:45:49;;;;;;;6.85;3.72;;;0.40;79.60;;;-1.69;89.17;95454.50;4951774;28;20036;-68
2022/01/08 03:50:41;;;;;;;5.22;3.35;;;0.20;80.10;;;-1.78;89.29;95442.41;4910956;29;20142;-69
2022/01/08 03:53:07;;;;;;;5.13;2.80;;;0.30;80.70;;;-1.74;89.97;95435.22;4935578;28;20039;-68
2022/01/08 03:55:32;;;;;;;5.38;2.90;;;0.30;80.90;;;-1.73;90.30;95431.69;4936068;29;20459;-68
2022/01/08 03:57:58;;;;;;;5.55;2.97;;;0.40;81.00;;;-1.70;90.32;95434.81;4933421;28;20567;-69
2022/01/08 04:00:24;;;;;;;4.75;3.00;;;0.40;81.00;;;-1.70;90.34;95444.31;4953347;28;20447;-69
2022/01/08 04:02:51;;;;;;;6.65;3.45;;;0.40;81.00;;;-1.68;90.18;95435.50;4916925;29;20301;-69
2022/01/08 04:05:17;;;;;;;4.82;2.75;;;0.50;80.80;;;-1.66;90.09;95430.22;4928286;29;20101;-69
2022/01/08 04:07:42;;;;;;;5.63;3.00;;;0.50;80.70;;;-1.65;90.10;95429.28;4951818;28;20035;-69
2022/01/08 04:10:08;;;;;;;5.57;2.90;;;0.50;80.70;;;-1.66;90.47;95422.50;4935511;28;20046;-69
2022/01/08 04:12:40;;;;;;;5.63;3.08;;;0.50;80.80;;;-1.67;90.41;95415.69;4917569;29;20035;-68
2022/01/08 04:15:56;;;;;;;3.78;2.30;;;0.40;80.70;;;-1.68;90.36;95414.06;4932521;29;20036;-68
2022/01/08 04:17:53;;;;;;;4.30;2.75;;;0.40;80.90;;;-1.68;90.50;95408.91;4939795;29;20050;-68
2022/01/08 04:20:20;;;;;;;3.92;2.88;;;0.30;81.10;;;-1.67;90.58;95413.13;4951263;28;20606;-67
2022/01/08 04:22:48;;;;;;;3.47;2.60;;;0.30;81.20;;;-1.69;90.53;95409.88;4950544;28;20405;-68
2022/01/08 04:25:20;;;;;;;4.50;2.97;;;0.30;81.30;;;-1.68;90.68;95399.41;4936015;29;20114;-68
2022/01/08 04:27:46;;;;;;;5.05;2.67;;;0.20;81.20;;;-1.67;90.32;95397.66;4932531;29;20078;-67
2022/01/08 04:30:12;;;;;;;4.88;2.70;;;0.30;81.20;;;-1.67;89.97;95389.91;4915929;29;20036;-67
2022/01/08 04:32:37;;;;;;;4.47;2.50;;;0.30;81.20;;;-1.71;90.04;95386.78;4937526;29;20054;-68
2022/01/08 04:35:03;;;;;;;6.22;2.78;;;0.20;81.20;;;-1.69;90.56;95379.75;4950483;29;20031;-68
2022/01/08 04:37:29;;;;;;;4.85;2.58;;;0.20;81.00;;;-1.69;90.16;95381.50;4935427;28;20445;-68
2022/01/08 04:39:55;;;;;;;3.90;2.65;;;0.20;81.10;;;-1.69;90.41;95377.16;4951297;28;20066;-68
2022/01/08 04:42:21;;;;;;;4.95;2.55;;;0.20;81.10;;;-1.69;90.20;95381.50;4934786;28;20038;-67
2022/01/08 04:44:47;;;;;;;4.18;2.08;;;0.20;81.10;;;-1.67;90.44;95385.56;4934784;29;20042;-68
2022/01/08 04:47:13;;;;;;;4.18;2.22;;;0.30;81.20;;;-1.65;90.46;95377.72;4935065;29;20039;-68
2022/01/08 04:49:38;;;;;;;2.55;2.03;;;0.40;81.20;;;-1.64;90.36;95380.16;4950833;28;20049;-69
2022/01/08 04:52:04;;;;;;;4.13;2.33;;;0.30;81.00;;;-1.61;90.33;95384.22;4934357;28;20039;-68
2022/01/08 04:54:30;;;;;;;3.25;2.17;;;0.40;81.00;;;-1.58;90.39;95389.16;4935124;29;20059;-67
2022/01/08 04:56:56;;;;;;;5.10;2.53;;;0.40;80.80;;;-1.54;90.30;95395.66;4950666;28;20082;-67
2022/01/08 04:59:22;;;;;;;3.22;2.30;;;0.50;80.50;;;-1.53;90.13;95394.72;4935323;29;20035;-68
2022/01/08 05:01:47;;;;;;;3.30;2.20;;;0.50;80.50;;;-1.56;90.08;95407.88;4931247;29;20043;-68
2022/01/08 05:04:13;;;;;;;13.32;4.45;;;0.50;80.60;;;-1.52;90.31;95414.41;4930897;28;20539;-67
2022/01/08 05:06:39;;;;;;;6.95;3.90;;;0.60;80.80;;;-1.51;90.62;95441.81;4918733;29;20036;-70
2022/01/08 05:09:04;;;;;;;4.65;2.75;;;0.50;80.80;;;-1.52;91.08;95486.59;4947475;28;20088;-70
2022/01/08 05:11:30;;;;;;;11.15;6.53;;;0.50;81.40;;;-1.52;91.16;95481.44;4949912;29;20069;-69
2022/01/08 05:13:56;;;;;;;7.05;4.43;;;0.40;82.20;;;-1.49;91.33;95468.28;4930244;29;20040;-69
2022/01/08 05:16:23;;;;;;;4.97;3.05;;;0.50;81.80;;;-1.49;91.19;95455.41;4933163;29;20071;-70
2022/01/08 05:18:54;;;;;;;4.72;3.13;;;0.40;81.90;;;-1.50;91.43;95461.50;4939702;28;20053;-67
2022/01/08 05:21:26;;;;;;;5.03;3.20;;;0.40;82.40;;;-1.54;91.76;95457.56;4927542;29;20075;-68
2022/01/08 05:23:55;;;;;;;5.10;2.60;;;0.40;83.10;;;-1.55;92.09;95440.44;4951545;28;20027;-68
2022/01/08 05:26:22;;;;;;;3.97;2.47;;;0.40;83.30;;;-1.56;92.45;95446.56;4931797;28;20035;-67
2022/01/08 05:28:48;;;;;;;4.65;2.10;;;0.30;83.60;;;-1.58;92.60;95425.25;4918094;29;20050;-67
2022/01/08 05:31:20;;;;;;;3.20;1.90;;;0.30;83.80;;;-1.59;93.25;95419.25;4934402;29;20035;-67
2022/01/08 05:33:45;;;;;;;6.30;3.40;;;0.30;84.10;;;-1.57;93.13;95411.41;4934843;29;20086;-68
2022/01/08 05:36:11;;;;;;;10.90;6.40;;;0.40;84.30;;;-1.52;93.55;95406.66;4902111;28;20059;-67
2022/01/08 05:38:37;;;;;;;4.07;2.42;;;0.60;84.00;;;-1.47;93.24;95406.25;4950919;28;20040;-67
2022/01/08 05:41:03;;;;;;;5.53;2.28;;;0.60;83.60;;;-1.45;93.34;95405.19;4934213;29;20039;-67
2022/01/08 05:43:28;;;;;;;3.55;1.98;;;0.70;83.20;;;-1.41;93.22;95396.22;4950162;28;20090;-67
2022/01/08 05:45:56;;;;;;;3.03;2.22;;;0.70;83.00;;;-1.37;93.14;95402.75;4951158;28;20447;-67
2022/01/08 05:48:23;;;;;;;2.63;1.90;;;0.80;82.90;;;-1.34;93.51;95397.34;4932620;28;20047;-66
2022/01/08 05:50:49;;;;;;;3.25;2.13;;;0.80;82.70;;;-1.31;93.22;95404.81;4918059;29;20051;-67
2022/01/08 05:53:17;;;;;;;2.70;1.65;;;0.80;82.80;;;-1.28;93.44;95401.97;4933521;29;20082;-66
2022/01/08 05:55:42;;;;;;;4.35;1.98;;;0.90;82.70;;;-1.28;93.46;95401.13;4949233;28;20050;-69
2022/01/08 05:58:08;;;;;;;2.50;1.75;;;0.90;83.10;;;-1.25;93.69;95409.44;4931679;28;20035;-68
2022/01/08 06:00:34;;;;;;;4.40;1.85;;;0.90;83.00;;;-1.20;93.71;95409.03;4929773;29;20055;-68
2022/01/08 06:02:59;;;;;;;2.80;1.45;;;0.90;83.10;;;-1.18;93.77;95411.47;4900123;29;20095;-68
2022/01/08 06:05:25;;;;;;;4.03;1.58;;;0.90;83.60;;;-1.16;93.77;95407.78;4947458;29;20492;-67
2022/01/08 06:07:51;;;;;;;5.20;2.30;;;0.90;83.30;;;-1.13;94.10;95419.59;4948770;29;20035;-68
2022/01/08 06:10:18;;;;;;;3.83;1.42;;;0.90;83.90;;;-1.13;94.41;95417.88;4932858;28;20038;-69
2022/01/08 06:12:45;;;;;;;1.90;1.35;;;0.90;84.20;;;-1.12;94.34;95416.09;4933772;29;20059;-68
2022/01/08 06:15:11;;;;;;;2.55;1.00;;;0.90;84.30;;;-1.10;94.84;95404.69;4901667;29;20027;-69
2022/01/08 06:17:36;;;;;;;2.20;1.20;;;0.90;84.40;;;-1.06;95.02;95410.41;4921291;29;20065;-69
2022/01/08 06:20:04;;;;;;;3.70;1.15;;;1.00;84.50;;;-1.02;95.22;95398.84;4904893;28;20065;-69
2022/01/08 06:22:30;;;;;;;2.13;1.00;;;1.10;84.70;;;-0.99;95.29;95396.81;4937290;28;20044;-69
2022/01/08 06:24:55;;;;;;;2.92;1.15;;;1.10;84.90;;;-0.94;95.32;95398.97;4936760;29;20061;-68
2022/01/08 06:27:21;;;;;;;1.40;0.90;;;1.20;84.60;;;-0.89;95.82;95394.25;4921424;29;20412;-69
2022/01/08 06:29:47;;;;;;;2.03;1.13;;;1.20;84.60;;;-0.85;95.65;95395.59;4952950;28;20090;-68
2022/01/08 06:32:14;;;;;;;3.63;1.00;;;1.30;84.60;;;-0.81;95.82;95393.56;4920827;28;20511;-68
2022/01/08 06:34:43;;;;;;;2.63;1.10;;;1.30;84.50;;;-0.78;95.77;95388.94;4921024;29;20448;-69
2022/01/08 06:37:10;;;;;;;1.88;1.00;;;1.30;84.50;;;-0.76;96.24;95387.03;4954239;28;20063;-68
2022/01/08 06:39:35;;;;;;;5.03;0.80;;;1.40;84.50;;;-0.72;95.78;95390.97;4937122;29;20043;-68
2022/01/08 06:42:02;;;;;;;5.38;1.20;;;1.40;84.20;;;-0.68;95.82;95399.25;4936408;28;20044;-69
2022/01/08 06:44:28;;;;;;;2.47;1.02;;;1.50;84.00;;;-0.64;95.59;95405.78;4936790;29;20380;-68
2022/01/08 06:46:53;;;;;;;1.55;0.80;;;1.50;83.60;;;-0.60;95.62;95396.00;4936545;29;20034;-67
2022/01/08 06:49:19;;;;;;;2.70;0.50;;;1.40;83.70;;;-0.57;94.96;95398.28;4921007;29;20114;-68
2022/01/08 06:51:45;;;;;;;0.98;0.40;;;1.40;82.90;;;-0.53;94.25;95391.91;4936677;29;20035;-68
2022/01/08 06:54:11;;;;;;;1.23;0.60;;;1.50;82.30;;;-0.49;93.69;95388.06;4935920;28;20055;-67
2022/01/08 06:56:36;;;;;;;1.40;0.47;;;1.50;81.60;;;-0.42;93.30;95394.34;4920601;29;20035;-67
2022/01/08 06:59:02;;;;;;;2.67;0.47;;;1.60;81.20;;;-0.37;92.92;95392.97;4951939;28;20043;-68
2022/01/08 07:01:28;;;;;;;1.60;0.77;;;1.60;80.60;;;-0.31;92.17;95396.75;4936414;29;20452;-68
2022/01/08 07:03:55;;;;;;;2.25;0.98;;;1.60;80.20;;;-0.25;91.46;95390.19;4918996;29;20090;-68
2022/01/08 07:06:21;;;;;;;2.20;0.80;;;1.70;79.20;;;-0.19;91.44;95385.31;4951516;28;20045;-68
2022/01/08 07:08:47;;;;;;;1.25;0.55;;;1.70;78.80;;;-0.15;90.68;95391.81;4932820;29;20237;-69
2022/01/08 07:11:13;;;;;;;0.68;0.47;;;1.70;78.70;;;-0.09;90.23;95391.25;4948980;28;20039;-68
2022/01/08 07:13:39;;;;;;;0.77;0.38;;;1.80;78.10;;;-0.05;89.86;95402.94;4952135;28;20040;-69
2022/01/08 07:16:05;;;;;;;1.83;0.70;;;1.90;78.00;;;0.00;89.35;95410.28;4935064;28;20027;-69
2022/01/08 07:18:31;;;;;;;0.63;0.40;;;1.90;77.70;;;0.05;89.07;95413.25;4945655;29;20499;-67
2022/01/08 07:20:57;;;;;;;1.10;0.50;;;1.90;77.30;;;0.08;88.98;95407.00;4948973;28;20040;-67
2022/01/08 07:23:23;;;;;;;2.22;0.47;;;2.00;77.30;;;0.14;89.34;95417.56;4935763;29;20038;-67
2022/01/08 07:25:48;;;;;;;1.80;0.60;;;2.10;77.30;;;0.15;88.66;95411.44;4935536;29;20031;-67
2022/01/08 07:28:14;;;;;;;1.48;0.40;;;2.10;77.30;;;0.19;87.99;95419.72;4949670;28;20133;-68
2022/01/08 07:30:40;;;;;;;0.77;0.40;;;2.10;77.20;;;0.21;88.38;95428.16;4951521;28;20043;-66
2022/01/08 07:33:06;;;;;;;2.10;0.45;;;2.10;77.20;;;0.23;88.07;95414.16;4947720;29;20048;-67
2022/01/08 07:35:31;;;;;;;1.15;0.40;;;2.20;77.40;;;0.27;88.63;95423.25;4932075;29;20087;-67
2022/01/08 07:37:57;;;;;;;1.00;0.45;;;2.10;77.20;;;0.30;87.92;95422.16;4951374;28;20043;-67
2022/01/08 07:40:23;;;;;;;1.83;0.38;;;2.20;77.30;;;0.35;88.59;95421.72;4935186;28;20413;-67
2022/01/08 07:42:49;;;;;;;1.20;0.38;;;2.20;77.20;;;0.37;87.77;95422.38;4932096;29;20144;-66
2022/01/08 07:45:15;;;;;;;1.80;0.35;;;2.30;77.50;;;0.39;88.30;95415.28;4931095;28;20546;-67
2022/01/08 07:47:41;;;;;;;2.58;1.15;;;2.20;78.10;;;0.43;88.12;95422.63;4926181;29;20130;-66
2022/01/08 07:50:07;;;;;;;1.48;0.90;;;2.30;78.80;;;0.47;88.97;95428.34;4930243;29;20066;-66
2022/01/08 07:52:33;;;;;;;1.27;0.63;;;2.40;79.30;;;0.51;89.53;95414.97;4928028;29;20072;-67
2022/01/08 07:54:59;;;;;;;0.55;0.32;;;2.50;79.70;;;0.51;89.85;95433.09;4891254;29;20118;-67
2022/01/08 07:57:24;;;;;;;0.70;0.40;;;2.40;81.20;;;0.48;90.32;95430.78;4950043;28;20162;-67
2022/01/08 07:59:50;;;;;;;3.58;0.65;;;2.30;82.60;;;0.45;91.53;95431.03;4933333;29;20035;-68
2022/01/08 08:02:16;;;;;;;2.75;0.77;;;2.20;83.70;;;0.41;92.41;95427.13;4933527;28;20098;-68
2022/01/08 08:04:41;;;;;;;2.55;0.63;;;2.10;84.50;;;0.38;93.22;95432.59;4949618;29;20040;-68
2022/01/08 08:07:07;;;;;;;1.00;0.60;;;2.20;85.00;;;0.35;93.64;95432.06;4949830;29;20055;-67
2022/01/08 08:09:33;;;;;;;0.95;0.60;;;2.10;85.70;;;0.29;94.21;95433.44;4947973;28;20065;-69
2022/01/08 08:11:59;;;;;;;1.08;0.65;;;2.00;86.20;;;0.25;95.13;95435.50;4948991;28;20045;-68
2022/01/08 08:14:25;;;;;;;1.33;0.85;;;2.10;86.50;;;0.24;95.42;95433.06;4948828;28;20058;-68
2022/01/08 08:16:50;;;;;;;1.92;0.90;;;2.00;86.50;;;0.21;96.00;95434.13;4949934;28;20122;-69
2022/01/08 08:19:16;;;;;;;3.05;1.67;;;2.00;86.70;;;0.20;96.50;95434.28;4950311;28;20039;-67
2022/01/08 08:21:42;;;;;;;2.33;1.17;;;2.10;86.80;;;0.20;96.59;95432.50;4949650;28;20079;-69
2022/01/08 08:24:08;;;;;;;4.85;1.20;;;2.10;86.70;;;0.21;97.43;95441.09;4949250;28;20455;-68
2022/01/08 08:26:34;;;;;;;2.97;0.95;;;2.10;86.40;;;0.25;97.32;95445.84;4933153;28;20047;-69
2022/01/08 08:29:00;;;;;;;2.13;0.90;;;2.20;86.30;;;0.26;97.86;95451.84;4933551;29;20082;-67
2022/01/08 08:31:26;;;;;;;0.85;0.60;;;2.20;86.30;;;0.27;97.62;95453.47;4949254;28;20036;-67
2022/01/08 08:33:51;;;;;;;1.77;0.80;;;2.20;86.20;;;0.29;97.69;95451.56;4949351;29;20118;-68
2022/01/08 08:36:17;;;;;;;2.42;1.20;;;2.20;86.20;;;0.32;97.76;95451.28;4948752;28;20032;-67
2022/01/08 08:38:43;;;;;;;1.77;0.80;;;2.30;86.20;;;0.35;98.07;95445.81;4949565;28;20054;-67
2022/01/08 08:41:10;;;;;;;2.53;0.80;;;2.30;86.10;;;0.38;97.75;95460.22;4917591;29;20039;-66
2022/01/08 08:43:35;;;;;;;2.40;1.30;;;2.30;86.00;;;0.40;98.39;95453.13;4930191;29;20039;-67
2022/01/08 08:46:01;;;;;;;4.40;1.17;;;2.40;86.20;;;0.43;97.37;95450.25;4915853;28;20031;-68
2022/01/08 08:48:27;;;;;;;3.15;1.30;;;2.40;85.80;;;0.46;97.75;95452.59;4949168;29;20440;-66
2022/01/08 08:50:53;;;;;;;8.27;3.20;;;2.40;85.80;;;0.50;97.44;95459.91;4948906;28;20089;-67
2022/01/08 08:53:18;;;;;;;6.28;3.22;;;2.40;85.70;;;0.52;98.48;95475.28;4949066;29;20036;-67
2022/01/08 08:55:44;;;;;;;2.42;1.33;;;2.40;85.80;;;0.54;98.41;95470.78;4933491;29;20355;-68
2022/01/08 08:58:10;;;;;;;4.55;2.33;;;2.40;85.70;;;0.57;97.94;95476.50;4948852;28;20035;-68
2022/01/08 09:00:36;;;;;;;2.28;1.10;;;2.50;85.40;;;0.61;98.07;95482.19;4932830;28;20415;-68
2022/01/08 09:03:02;;;;;;;4.57;2.80;;;2.50;85.10;;;0.65;97.64;95490.47;4949381;28;20525;-67
2022/01/08 09:05:27;;;;;;;1.30;0.80;;;2.60;84.90;;;0.68;97.20;95493.63;4932729;29;20085;-69
2022/01/08 09:07:53;;;;;;;1.42;0.90;;;2.60;84.40;;;0.73;97.25;95495.78;4948913;29;20090;-67
2022/01/08 09:10:25;;;;;;;1.73;0.80;;;2.60;84.40;;;0.77;96.88;95497.13;4948713;28;20119;-67
2022/01/08 09:12:51;;;;;;;0.98;0.60;;;2.80;84.20;;;0.86;96.15;95507.41;4948498;28;20047;-67
2022/01/08 09:15:20;;;;;;;1.63;0.85;;;2.90;82.10;;;0.90;95.01;95500.16;4933015;29;20023;-68
2022/01/08 09:17:47;;;;;;;1.65;0.90;;;2.80;81.70;;;0.92;94.46;95521.56;4933469;29;20047;-73
2022/01/08 09:20:13;;;;;;;1.00;0.50;;;2.70;81.60;;;0.94;94.25;95539.56;4932084;28;20039;-68
2022/01/08 09:22:38;;;;;;;1.88;1.20;;;2.70;81.90;;;0.93;94.20;95533.56;4948905;28;20411;-69
2022/01/08 09:25:04;;;;;;;1.25;0.40;;;2.70;82.20;;;0.89;94.60;95543.38;4923209;28;20496;-68
2022/01/08 09:27:31;;;;;;;0.82;0.70;;;2.60;82.90;;;0.87;94.69;95539.28;4932886;29;20036;-69
2022/01/08 09:29:56;;;;;;;1.45;0.73;;;2.60;83.20;;;0.87;94.68;95557.41;4932949;29;20032;-68
2022/01/08 09:32:23;;;;;;;0.77;0.50;;;2.60;83.30;;;0.82;95.13;95572.56;4946800;28;20194;-68
2022/01/08 09:34:50;;;;;;;1.75;0.90;;;2.50;84.00;;;0.76;95.16;95583.50;4947394;29;20110;-67
2022/01/08 09:37:15;;;;;;;1.02;0.65;;;2.40;84.60;;;0.73;95.35;95573.44;4932458;29;20407;-68
2022/01/08 09:39:41;;;;;;;1.60;0.80;;;2.40;84.60;;;0.67;94.88;95589.50;4932967;29;20042;-70
2022/01/08 09:42:10;;;;;;;2.65;0.90;;;2.30;85.20;;;0.61;96.42;95589.09;4948903;28;20043;-67
2022/01/08 09:44:38;;;;;;;1.05;0.85;;;2.20;85.70;;;0.54;96.19;95588.03;4947811;28;20043;-67
2022/01/08 09:47:05;;;;;;;1.40;0.82;;;2.10;85.50;;;0.50;95.57;95597.03;4929464;29;20044;-68
2022/01/08 09:49:32;;;;;;;2.33;1.08;;;2.10;85.10;;;0.46;95.55;95603.47;4913777;29;20076;-67
2022/01/08 09:51:57;;;;;;;1.55;0.88;;;2.20;85.00;;;0.43;95.44;95603.72;4919811;29;20043;-68
2022/01/08 09:54:24;;;;;;;2.08;0.90;;;2.10;84.00;;;0.39;95.09;95604.94;4928764;28;20035;-69
2022/01/08 09:56:50;;;;;;;1.42;0.80;;;2.10;83.50;;;0.40;94.46;95616.13;4938755;28;20035;-68
2022/01/08 09:59:16;;;;;;;0.63;0.43;;;2.10;82.70;;;0.38;93.98;95613.66;4932623;29;20117;-68
2022/01/08 10:01:42;;;;;;;2.35;0.90;;;2.10;82.20;;;0.39;93.43;95620.47;4947994;28;20133;-65
2022/01/08 10:04:08;;;;;;;1.90;0.93;;;2.10;82.30;;;0.41;93.65;95618.56;4930984;28;20047;-67
2022/01/08 10:06:35;;;;;;;1.73;0.75;;;2.20;82.20;;;0.42;93.71;95627.94;4932262;29;20035;-68
2022/01/08 10:09:01;;;;;;;0.82;0.60;;;2.20;81.90;;;0.44;93.63;95640.75;4947561;29;20055;-68
2022/01/08 10:11:28;;;;;;;1.52;0.70;;;2.10;81.90;;;0.43;93.20;95639.94;4948393;28;20030;-68
2022/01/08 10:14:02;;;;;;;1.65;0.70;;;2.10;81.80;;;0.44;92.71;95646.72;4931622;29;20042;-67
2022/01/08 10:19:23;;;;;;;1.48;0.80;;;2.20;81.50;;;0.47;92.81;95653.44;4948405;28;20586;-67
2022/01/08 10:21:50;;;;;;;1.92;0.70;;;2.20;81.40;;;0.50;93.05;95660.91;4916556;29;20047;-68
2022/01/08 10:24:26;;;;;;;3.10;1.75;;;2.40;81.70;;;0.51;92.57;95668.53;4946938;28;20039;-68
2022/01/08 10:26:52;;;;;;;2.67;1.25;;;2.30;80.60;;;0.55;92.24;95659.53;4947972;28;20031;-69
2022/01/08 10:29:21;;;;;;;1.80;0.82;;;2.40;80.20;;;0.57;91.43;95662.81;4931840;29;20062;-68
2022/01/08 10:31:50;;;;;;;1.08;0.50;;;2.40;80.20;;;0.60;91.54;95672.06;4932191;29;20201;-67
2022/01/08 10:34:21;;;;;;;1.45;0.77;;;2.40;79.00;;;0.62;91.28;95685.69;4931655;28;20640;-68
2022/01/08 10:36:54;;;;;;;1.27;0.82;;;2.40;80.10;;;0.64;91.08;95682.94;4932369;29;20495;-67
2022/01/08 10:39:34;;;;;;;1.10;0.70;;;2.40;79.70;;;0.66;90.34;95692.19;4933033;29;20130;-66
2022/01/08 10:42:11;;;;;;;1.80;0.90;;;2.40;79.30;;;0.69;89.32;95697.13;4944002;28;20035;-66
2022/01/08 10:44:37;;;;;;;2.70;0.90;;;2.50;78.50;;;0.74;90.15;95694.13;4948054;28;20118;-69
2022/01/08 10:47:05;;;;;;;2.70;1.20;;;2.70;78.50;;;0.77;89.50;95693.84;4932096;29;20067;-69
2022/01/08 10:50:17;;;;;;;2.97;1.13;;;2.60;77.90;;;0.82;88.28;95702.00;4932154;29;20636;-69
2022/01/08 10:52:46;;;;;;;3.33;1.20;;;2.70;76.80;;;0.87;88.36;95715.34;4931369;28;20135;-65